Altura, Minnesota
Current Conditions -  °F | °C
As of 2:14 PM on Friday 28 Nov 2014 (Local Time) from KONA Reporting Station
Broken Clouds Broken Clouds  
Wind Chill: 20°   Ceiling: 10000
Heat Index: 28°   Visibility: 10mi
Dew Point: 19°   Wind: 9mph
Humidity: 69%   Direction: 130°SE
Pressure: 29.89"   Gusts: NA
Location:  44.07°N, 91.94°W
Report Text: KONA 282014Z AUTO 13008KT 10SM BKN100 M02/M07 A2989 RMK AO2
Loading
Personal Weather Stations






























Interactive Weather Map New forecast layout! Learn more

10-Day Weather Forecast

Advertisements
Track Severe Weather on mobile